Weather at District 5 Headquarters Heliport [CLOSED]

Public forecast

Using degrees Fahrenheit for public forecast. Weather courtesy of forecast.io.

Closest aviation weather report (METAR) to District 5 Headquarters Heliport

Closest report is Albuquerque International Sunport, 4.1 nm (7.6 km) S.

2024/07/21 06:26 (retrieved 31 minutes ago)

KABQ 210626Z 11006KT 10SM FEW005 FEW050 SCT110 BKN160 19/17 A3034 RMK AO2 MTNS OBSC NE AND SE SHRA DSNT SE T01940167

Closest aviation forecast (TAF) to District 5 Headquarters Heliport

Closest forecast is Albuquerque International Sunport, 4.1 nm (7.6 km) S.

2024/07/21 06:22 (retrieved 35 minutes ago)

TAF KABQ 210520Z 2106/2206 11012KT P6SM BKN100 FM211000 08008KT P6SM SCT090 BKN150 FM211900 15008KT P6SM VCSH BKN070 OVC200 TEMPO 2122/2202 10020G35KT 5SM -TSRA OVC050CB FM220200 08016G24KT P6SM VCSH BKN060 OVC120